DW1736 Remlik VA US current weather conditions

sailwx.info

Air temperature 10.0° C
Dewpoint 10.0° C

Last reported at 2020-Jan-25 12:55 UTC.
Time now 2020-Jan-25 13:27 UTC

Location: N 37°41' W 076°37'.
View on Google Maps.

See reports from other nearby stations

  
Tides and Currents Weather Stations Pressure Air Temp Water Temp Dewpoint Dewpoint Depression Visibility Wind Speed Wind Dir Waves Ship Positions
date/time (UTC)wind fromknots sea level pressurealtimeterstation pressurevisibilityair tempwater tempwave heightnotes
2020-Jan-25 13:05 10.0
2020-Jan-25 12:55 10.0
2020-Jan-25 12:45 10.0
2020-Jan-25 12:35 10.0
2020-Jan-25 12:25 10.0
2020-Jan-25 12:15 10.0
2020-Jan-25 12:05 10.0
2020-Jan-25 11:55 10.0
2020-Jan-25 11:45 10.6
2020-Jan-25 11:35 10.6
2020-Jan-25 11:25 10.6
2020-Jan-25 11:15 10.6
2020-Jan-25 11:05 10.6
2020-Jan-25 10:55 10.6
2020-Jan-25 10:45 11.1
2020-Jan-25 10:35 11.1
2020-Jan-25 10:25 11.1
2020-Jan-25 10:15 211 11.1
2020-Jan-25 10:05 252 11.7
2020-Jan-25 09:55 249 1 gusting 16 11.7
2020-Jan-25 09:45 249 5 gusting 15 12.8
2020-Jan-25 09:35 246 2 gusting 11 12.8
2020-Jan-25 09:25 12.2
2020-Jan-25 09:15 096 12.2
2020-Jan-25 09:05 11.7
2020-Jan-25 08:55 088 11.1
2020-Jan-25 08:45 11.1
2020-Jan-25 08:35 11.1
2020-Jan-25 08:25 11.1
2020-Jan-25 08:15 10.6
2020-Jan-25 08:05 11.1
2020-Jan-25 07:55 11.1
2020-Jan-25 07:45 094 10.6
2020-Jan-25 07:35 11.1
2020-Jan-25 07:25 087 0 gusting 4 11.7
2020-Jan-25 07:15 089 0 gusting 6 11.1
2020-Jan-25 07:05 092 1 gusting 7 11.1
2020-Jan-25 06:55 088 0 gusting 8 11.1
2020-Jan-25 06:45 085 0 gusting 4 11.1
2020-Jan-25 06:35 092 10.6
2020-Jan-25 06:25 088 0 gusting 5 10.6
2020-Jan-25 06:15 100 0 gusting 4 10.6
2020-Jan-25 06:05 087 10.6
2020-Jan-25 05:55 097 10.0
2020-Jan-25 05:45 089 0 gusting 7 10.0
2020-Jan-25 05:35 095 1 gusting 8 10.0
2020-Jan-25 05:25 106 0 gusting 6 9.4
2020-Jan-25 05:15 113 0 gusting 6 9.4
2020-Jan-25 05:05 097 0 gusting 6 9.4
2020-Jan-25 04:55 094 0 gusting 6 9.4
2020-Jan-25 04:45 091 1 gusting 9 8.9
2020-Jan-25 04:35 082 2 gusting 8 9.4
2020-Jan-25 04:25 092 2 gusting 8 9.4
2020-Jan-25 04:15 096 2 gusting 11 9.4
2020-Jan-25 04:05 084 2 gusting 11 9.4
2020-Jan-25 03:55 094 2 gusting 8 8.9
2020-Jan-25 03:45 088 2 gusting 10 8.9
2020-Jan-25 03:35 088 2 gusting 10 8.9
2020-Jan-25 03:25 092 2 gusting 12 8.9
2020-Jan-25 03:15 090 3 gusting 10 8.9
2020-Jan-25 03:05 089 2 gusting 7 8.9
2020-Jan-25 02:55 088 0 gusting 7 8.3
2020-Jan-25 02:45 082 2 gusting 7 8.3
2020-Jan-25 02:35 088 2 gusting 7 8.3
2020-Jan-25 02:25 090 2 gusting 7 8.3
2020-Jan-25 02:15 090 1 gusting 7 8.3
2020-Jan-25 02:05 087 1 gusting 6 8.3
2020-Jan-25 01:55 085 0 gusting 4 8.3
2020-Jan-25 01:45 086 0 gusting 3 8.9
2020-Jan-25 01:35 091 8.9
2020-Jan-25 01:25 099 8.9
2020-Jan-25 01:15 094 0 gusting 3 8.9
2020-Jan-25 01:05 089 0 gusting 5 8.9
2020-Jan-25 00:55 091 8.9
2020-Jan-25 00:45 092 0 gusting 4 8.9
2020-Jan-25 00:35 087 1 gusting 4 8.9
2020-Jan-25 00:25 092 0 gusting 4 8.9
2020-Jan-25 00:15 094 9.4
2020-Jan-25 00:05 092 0 gusting 5 9.4
2020-Jan-24 23:55 084 9.4
2020-Jan-24 23:45 085 9.4
2020-Jan-24 23:35 094 9.4
2020-Jan-24 23:25 074 9.4
2020-Jan-24 23:15 074 9.4
2020-Jan-24 23:05 9.4
2020-Jan-24 22:55 088 9.4
2020-Jan-24 22:45 081 9.4
2020-Jan-24 22:35 10.0
2020-Jan-24 22:25 10.0
2020-Jan-24 22:15 10.0
2020-Jan-24 22:05 10.6
2020-Jan-24 21:55 10.6
2020-Jan-24 21:45 103 10.6
2020-Jan-24 21:35 092 0 gusting 3 10.6
2020-Jan-24 21:25 085 0 gusting 3 10.6
2020-Jan-24 21:15 088 0 gusting 4 10.6
2020-Jan-24 21:05 083 0 gusting 4 11.1
2020-Jan-24 20:55 090 11.1
2020-Jan-24 20:45 086 11.1
2020-Jan-24 20:35 093 0 gusting 5 11.7
2020-Jan-24 20:25 085 1 gusting 6 11.7
2020-Jan-24 20:15 085 1 gusting 4 12.2
2020-Jan-24 20:05 081 1 gusting 6 12.2
2020-Jan-24 19:55 086 1 gusting 9 11.7
2020-Jan-24 19:45 086 1 gusting 5 11.7
2020-Jan-24 19:35 085 1 gusting 7 11.7
2020-Jan-24 19:25 088 1 gusting 6 11.7
2020-Jan-24 19:15 088 11.7
2020-Jan-24 19:05 087 12.2
2020-Jan-24 18:55 086 1 gusting 6 12.2
2020-Jan-24 18:45 089 0 gusting 6 11.7
2020-Jan-24 18:35 091 1 gusting 4 11.7
2020-Jan-24 18:25 098 11.7
2020-Jan-24 18:15 091 11.7
2020-Jan-24 18:05 088 0 gusting 5 11.1
2020-Jan-24 17:55 090 0 gusting 5 11.1
2020-Jan-24 17:45 105 0 gusting 4 10.6
2020-Jan-24 17:35 084 10.6
2020-Jan-24 17:25 097 0 gusting 4 10.0
2020-Jan-24 17:15 089 10.0
2020-Jan-24 17:05 093 9.4
2020-Jan-24 16:55 102 8.9
2020-Jan-24 16:45 093 8.3
2020-Jan-24 16:35 094 8.3
2020-Jan-24 16:25 090 8.3
2020-Jan-24 16:15 096 0 gusting 6 8.3
2020-Jan-24 16:05 080 7.8
2020-Jan-24 15:55 095 7.8
2020-Jan-24 15:45 084 7.8
2020-Jan-24 15:35 093 7.2
2020-Jan-24 15:25 084 7.2
2020-Jan-24 15:15 075 0 gusting 2 6.7
2020-Jan-24 15:05 6.1
2020-Jan-24 14:55 6.1
2020-Jan-24 14:45 063 5.6
2020-Jan-24 14:35 5.6
2020-Jan-24 14:25 052 5.6
2020-Jan-24 14:15 060 0 gusting 2 5.0
2020-Jan-24 14:05 054 4.4
2020-Jan-24 13:55 4.4
2020-Jan-24 13:45 4.4
2020-Jan-24 13:35 065 3.9
2020-Jan-24 13:25 035 3.9
2020-Jan-24 13:15 3.3
2020-Jan-24 13:05 2.8
2020-Jan-24 12:55 2.2
2020-Jan-24 12:45 1.7
2020-Jan-24 12:35 1.7
2020-Jan-24 12:25 1.7
2020-Jan-24 12:15 1.7
2020-Jan-24 12:05 1.7
2020-Jan-24 11:55 2.2
2020-Jan-24 11:45 2.2
2020-Jan-24 11:35 2.2
2020-Jan-24 11:25 2.2
2020-Jan-24 11:15 2.2
2020-Jan-24 11:05 2.2
2020-Jan-24 10:55 2.8
2020-Jan-24 10:45 2.8
2020-Jan-24 10:35 2.8
2020-Jan-24 10:25 2.8
2020-Jan-24 10:15 2.2
2020-Jan-24 10:05 2.8
2020-Jan-24 09:55 2.2
2020-Jan-24 09:45 2.2
2020-Jan-24 09:35 2.2
2020-Jan-24 09:25 035 2.2
2020-Jan-24 09:15 2.2
2020-Jan-24 09:05 2.2
2020-Jan-24 08:55 034 1.7
2020-Jan-24 08:45 1.7
2020-Jan-24 08:35 1.7
2020-Jan-24 08:25 1.1
2020-Jan-24 08:15 0.6
2020-Jan-24 08:05 0.6
2020-Jan-24 07:55 -0.0
2020-Jan-24 07:45 -0.6
2020-Jan-24 07:35 -0.6
2020-Jan-24 07:25 -1.1
2020-Jan-24 07:15 -1.1
2020-Jan-24 07:05 -1.1
2020-Jan-24 06:55 -1.1
2020-Jan-24 06:45 -1.1
2020-Jan-24 06:35 -1.7
2020-Jan-24 06:25 -1.7
2020-Jan-24 06:15 -1.7
2020-Jan-24 06:05 -1.1
2020-Jan-24 05:55 -1.1
2020-Jan-24 05:45 -1.1
2020-Jan-24 05:35 -1.1
2020-Jan-24 05:25 -1.1
2020-Jan-24 05:15 -1.1
2020-Jan-24 05:05 -1.1
2020-Jan-24 04:55 -0.6
2020-Jan-24 04:45 -0.6
2020-Jan-24 04:35 -0.6
2020-Jan-24 04:25 -0.6
2020-Jan-24 04:15 -0.0
2020-Jan-24 04:05 -0.0
2020-Jan-24 03:55 0.6
2020-Jan-24 03:45 0.6
2020-Jan-24 03:35 1.1
2020-Jan-24 03:25 1.1
2020-Jan-24 03:15 1.7
2020-Jan-24 03:05 1.7
2020-Jan-24 02:55 1.7
2020-Jan-24 02:45 1.7
2020-Jan-24 02:35 1.7
2020-Jan-24 02:25 1.7
2020-Jan-24 02:15 2.2
2020-Jan-24 02:05 2.2
2020-Jan-24 01:55 2.2
2020-Jan-24 01:45 2.2
2020-Jan-24 01:35 2.8
2020-Jan-24 01:25 2.8
2020-Jan-24 00:50 2.8
2020-Jan-24 00:40 2.8
2020-Jan-24 00:30 2.8
2020-Jan-24 00:20 2.8
2020-Jan-24 00:10 2.8
2020-Jan-24 00:00 2.8
2020-Jan-23 23:50 2.8
2020-Jan-23 23:40 3.3
2020-Jan-23 23:30 3.3
2020-Jan-23 23:20 3.3
2020-Jan-23 23:10 3.3
2020-Jan-23 23:00 3.9
2020-Jan-23 22:50 3.9
2020-Jan-23 22:40 4.4
2020-Jan-23 22:30 4.4
2020-Jan-23 22:20 5.0
2020-Jan-23 22:10 5.0
2020-Jan-23 22:00 5.6
2020-Jan-23 21:50 5.6
2020-Jan-23 21:40 6.1
2020-Jan-23 21:30 6.1
2020-Jan-23 21:20 6.1
2020-Jan-23 21:10 6.1
2020-Jan-23 21:00 6.7
2020-Jan-23 20:50 6.7
2020-Jan-23 20:40 6.7
2020-Jan-23 20:30 7.2
2020-Jan-23 20:20 7.2
2020-Jan-23 20:10 7.2
2020-Jan-23 20:00 6.7
2020-Jan-23 19:50 6.7
2020-Jan-23 19:40 6.7
2020-Jan-23 19:30 055 7.2
2020-Jan-23 19:20 7.2
2020-Jan-23 19:10 055 6.7
2020-Jan-23 19:00 6.7
2020-Jan-23 18:50 055 6.7
2020-Jan-23 18:30 6.1
2020-Jan-23 18:20 6.1
2020-Jan-23 18:10 5.6
2020-Jan-23 18:00 5.6
2020-Jan-23 17:50 5.0
2020-Jan-23 17:40 5.0
2020-Jan-23 17:30 5.0
2020-Jan-23 17:20 5.0
2020-Jan-23 17:10 5.0
2020-Jan-23 17:00 4.4
2020-Jan-23 16:50 4.4
2020-Jan-23 16:40 4.4
2020-Jan-23 16:30 058 3.9
2020-Jan-23 16:20 3.9
2020-Jan-23 16:10 3.9
2020-Jan-23 16:00 3.3
2020-Jan-23 15:50 3.3
2020-Jan-23 15:40 2.8
2020-Jan-23 15:30 2.8
2020-Jan-23 15:20 2.8
2020-Jan-23 15:10 2.2
2020-Jan-23 15:00 2.2
2020-Jan-23 14:50 036 1.7
2020-Jan-23 14:40 036 1.1
2020-Jan-23 14:30 0.6
2020-Jan-23 14:20 -0.0
2020-Jan-23 14:10 -0.6
2020-Jan-23 14:00 -1.7
2020-Jan-23 13:50 -2.2
2020-Jan-23 13:40 -2.8
2020-Jan-23 13:30 -3.3
2020-Jan-23 13:20 -3.9
2020-Jan-23 13:10 -4.4
2020-Jan-23 13:00 -5.0